createdAt,value
2017-08-23T00:00:26.249Z,10.00
2017-08-23T00:02:52.166Z,13.07
2017-08-23T00:05:18.140Z,9.83
2017-08-23T00:07:44.098Z,14.03
2017-08-23T00:10:10.090Z,11.93
2017-08-23T00:12:36.108Z,9.80
2017-08-23T00:15:02.139Z,10.13
2017-08-23T00:17:28.152Z,9.37
2017-08-23T00:19:54.139Z,9.90
2017-08-23T00:22:20.188Z,10.00
2017-08-23T00:24:47.047Z,10.60
2017-08-23T00:27:13.255Z,10.07
2017-08-23T00:29:39.271Z,9.80
2017-08-23T00:32:05.211Z,9.43
2017-08-23T00:34:31.231Z,10.40
2017-08-23T00:36:57.277Z,10.43
2017-08-23T00:39:23.259Z,10.10
2017-08-23T00:41:49.207Z,11.00
2017-08-23T00:44:15.162Z,17.10
2017-08-23T00:46:41.147Z,10.20
2017-08-23T00:49:07.146Z,10.27
2017-08-23T00:51:33.180Z,11.17
2017-08-23T00:53:59.255Z,9.57
2017-08-23T00:56:25.228Z,10.53
2017-08-23T00:58:51.255Z,9.37
2017-08-23T01:01:17.267Z,9.63
2017-08-23T01:03:43.320Z,10.70
2017-08-23T01:06:09.319Z,10.87
2017-08-23T01:08:35.354Z,10.73
2017-08-23T01:11:06.527Z,13.10
2017-08-23T01:13:33.260Z,10.20
2017-08-23T01:15:59.305Z,10.70
2017-08-23T01:18:25.310Z,10.27
2017-08-23T01:20:51.344Z,9.93
2017-08-23T01:23:17.360Z,10.17
2017-08-23T01:25:44.205Z,9.83
2017-08-23T01:28:10.195Z,9.90
2017-08-23T01:30:36.126Z,11.03
2017-08-23T01:33:02.113Z,10.80
2017-08-23T01:35:29.010Z,10.70
2017-08-23T01:37:54.991Z,10.63
2017-08-23T01:40:20.972Z,12.43
2017-08-23T01:42:46.984Z,12.27
2017-08-23T01:45:12.979Z,10.90
2017-08-23T01:47:38.976Z,12.97
2017-08-23T01:50:05.932Z,11.30
2017-08-23T01:52:31.952Z,12.33
2017-08-23T01:54:57.974Z,12.13
2017-08-23T01:57:23.958Z,11.40
2017-08-23T01:59:49.972Z,12.77
2017-08-23T02:02:15.949Z,11.60
2017-08-23T02:04:41.911Z,11.97
2017-08-23T02:07:07.851Z,12.50
2017-08-23T02:09:33.831Z,10.90
2017-08-23T02:11:59.813Z,12.70
2017-08-23T02:14:25.892Z,12.83
2017-08-23T02:16:51.811Z,12.03
2017-08-23T02:19:17.807Z,13.77
2017-08-23T02:21:43.759Z,12.60
2017-08-23T02:24:09.696Z,12.80
2017-08-23T02:26:36.659Z,12.47
2017-08-23T02:29:02.578Z,12.60
2017-08-23T02:31:28.541Z,13.03
2017-08-23T02:33:54.492Z,12.67
2017-08-23T02:36:20.504Z,13.63
2017-08-23T02:38:46.459Z,12.27
2017-08-23T02:41:12.413Z,12.50
2017-08-23T02:43:38.428Z,11.80
2017-08-23T02:46:04.347Z,14.47
2017-08-23T02:48:30.367Z,13.73
2017-08-23T02:50:56.302Z,14.47
2017-08-23T02:53:22.247Z,12.97
2017-08-23T02:55:48.722Z,15.40
2017-08-23T02:58:14.736Z,15.40
2017-08-23T03:00:40.698Z,14.83
2017-08-23T03:03:06.727Z,16.47
2017-08-23T03:05:32.674Z,16.23
2017-08-23T03:07:58.668Z,13.87
2017-08-23T03:10:24.935Z,12.90
2017-08-23T03:12:51.021Z,13.27
2017-08-23T03:15:16.994Z,12.10
2017-08-23T03:17:42.943Z,12.90
2017-08-23T03:20:08.963Z,13.70
2017-08-23T03:22:34.946Z,13.03
2017-08-23T03:25:00.928Z,12.13
2017-08-23T03:27:26.976Z,13.20
2017-08-23T03:29:53.211Z,12.20
2017-08-23T03:32:19.405Z,13.37
2017-08-23T03:34:45.379Z,13.00
2017-08-23T03:37:11.339Z,12.70
2017-08-23T03:39:37.283Z,11.70
2017-08-23T03:42:03.254Z,12.40
2017-08-23T03:44:29.194Z,13.57
2017-08-23T03:46:55.132Z,12.60
2017-08-23T03:49:21.153Z,12.80
2017-08-23T03:51:47.170Z,13.07
2017-08-23T03:54:13.311Z,12.50
2017-08-23T03:56:39.247Z,16.80
2017-08-23T03:59:05.227Z,13.97
2017-08-23T04:01:31.243Z,13.43
2017-08-23T04:03:57.210Z,15.77
2017-08-23T04:06:23.183Z,13.57
2017-08-23T04:08:49.123Z,13.80
2017-08-23T04:11:15.073Z,13.77
2017-08-23T04:13:41.175Z,13.50
2017-08-23T04:16:07.128Z,13.87
2017-08-23T04:18:33.130Z,13.70
2017-08-23T04:20:59.080Z,13.97
2017-08-23T04:23:25.114Z,13.10
2017-08-23T04:25:51.077Z,14.57
2017-08-23T04:28:17.101Z,14.03
2017-08-23T04:30:43.135Z,15.10
2017-08-23T04:33:09.594Z,13.13
2017-08-23T04:35:35.629Z,13.83
2017-08-23T04:38:02.677Z,15.57
2017-08-23T04:40:29.718Z,15.57
2017-08-23T04:42:55.753Z,12.27
2017-08-23T04:45:21.715Z,15.07
2017-08-23T04:47:47.873Z,13.80
2017-08-23T04:50:13.920Z,13.30
2017-08-23T04:52:39.900Z,13.87
2017-08-23T04:55:06.172Z,13.10
2017-08-23T04:57:32.526Z,13.30
2017-08-23T04:59:58.499Z,15.60
2017-08-23T05:02:24.499Z,14.50
2017-08-23T05:04:50.467Z,14.07
2017-08-23T05:07:16.391Z,16.20
2017-08-23T05:09:42.335Z,15.10
2017-08-23T05:12:08.305Z,15.13
2017-08-23T05:14:34.356Z,15.47
2017-08-23T05:17:00.316Z,13.93
2017-08-23T05:19:26.282Z,14.33
2017-08-23T05:21:52.268Z,14.03
2017-08-23T05:24:18.243Z,19.03
2017-08-23T05:26:44.228Z,15.10
2017-08-23T05:29:10.181Z,34.53
2017-08-23T05:31:36.231Z,18.50
2017-08-23T05:34:02.231Z,14.10
2017-08-23T05:36:28.219Z,14.20
2017-08-23T05:38:54.146Z,13.37
2017-08-23T05:41:20.146Z,14.70
2017-08-23T05:43:47.031Z,12.33
2017-08-23T05:46:13.022Z,14.03
2017-08-23T05:48:39.151Z,12.40
2017-08-23T05:51:05.130Z,15.23
2017-08-23T05:53:31.068Z,12.97
2017-08-23T05:55:58.093Z,13.97
2017-08-23T05:58:24.110Z,14.30
2017-08-23T06:00:50.066Z,15.87
2017-08-23T06:03:16.033Z,15.30
2017-08-23T06:05:42.057Z,15.47
2017-08-23T06:08:08.076Z,12.07
2017-08-23T06:10:34.658Z,13.60
2017-08-23T06:13:00.675Z,12.33
2017-08-23T06:15:26.894Z,13.73
2017-08-23T06:17:53.004Z,12.73
2017-08-23T06:20:19.031Z,12.83
2017-08-23T06:22:45.080Z,12.80
2017-08-23T06:25:11.355Z,13.67
2017-08-23T06:27:37.328Z,14.57
2017-08-23T06:30:03.406Z,14.20
2017-08-23T06:32:29.427Z,12.67
2017-08-23T06:34:55.529Z,14.03
2017-08-23T06:37:21.504Z,14.30
2017-08-23T06:39:47.443Z,13.50
2017-08-23T06:42:14.078Z,14.40
2017-08-23T06:44:40.087Z,16.33
2017-08-23T06:47:06.119Z,15.67
2017-08-23T06:49:32.131Z,13.77
2017-08-23T06:51:58.278Z,13.40
2017-08-23T06:54:24.879Z,12.80
2017-08-23T06:56:50.883Z,14.13
2017-08-23T06:59:16.855Z,14.20
2017-08-23T07:01:43.643Z,13.37
2017-08-23T07:04:11.235Z,13.90
2017-08-23T07:06:38.236Z,13.83
2017-08-23T07:09:04.991Z,13.50
2017-08-23T07:11:31.742Z,13.17
2017-08-23T07:13:57.748Z,14.80
2017-08-23T07:16:23.660Z,12.93
2017-08-23T07:18:49.608Z,13.60
2017-08-23T07:21:15.669Z,13.17
2017-08-23T07:23:41.689Z,12.67
2017-08-23T07:26:07.659Z,14.10
2017-08-23T07:28:33.658Z,12.83
2017-08-23T07:30:59.619Z,14.67
2017-08-23T07:33:25.541Z,15.33
2017-08-23T07:35:51.525Z,14.00
2017-08-23T07:38:18.642Z,13.80
2017-08-23T07:40:45.107Z,16.23
2017-08-23T07:43:11.075Z,18.07
2017-08-23T07:45:37.037Z,12.60
2017-08-23T07:48:02.997Z,13.67
2017-08-23T07:50:29.009Z,12.83
2017-08-23T07:52:55.023Z,13.27
2017-08-23T07:55:20.988Z,12.77
2017-08-23T07:57:46.908Z,11.60
2017-08-23T08:00:12.877Z,13.50
2017-08-23T08:02:38.823Z,13.20
2017-08-23T08:05:04.806Z,20.00
2017-08-23T08:07:30.849Z,12.93
2017-08-23T08:09:56.834Z,13.80
2017-08-23T08:12:22.950Z,11.83
2017-08-23T08:14:48.926Z,13.07
2017-08-23T08:17:14.891Z,13.60
2017-08-23T08:19:40.894Z,13.43
2017-08-23T08:22:06.859Z,13.40
2017-08-23T08:24:32.815Z,11.57
2017-08-23T08:26:59.383Z,15.00
2017-08-23T08:29:25.372Z,12.33
2017-08-23T08:31:51.310Z,11.97
2017-08-23T08:34:18.155Z,11.57
2017-08-23T08:36:44.127Z,11.70
2017-08-23T08:39:10.882Z,11.50
2017-08-23T08:41:36.813Z,17.27
2017-08-23T08:44:03.484Z,12.20
2017-08-23T08:46:29.506Z,11.97
2017-08-23T08:48:55.499Z,12.17
2017-08-23T08:51:21.503Z,12.03
2017-08-23T08:53:47.554Z,14.20
2017-08-23T08:56:14.551Z,13.57
2017-08-23T08:58:40.517Z,12.27
2017-08-23T09:01:08.276Z,14.10
2017-08-23T09:03:34.387Z,10.27
2017-08-23T09:06:00.391Z,11.73
2017-08-23T09:08:26.344Z,13.87
2017-08-23T09:10:52.709Z,11.40
2017-08-23T09:13:18.748Z,11.17
2017-08-23T09:15:44.714Z,11.07
2017-08-23T09:18:10.766Z,11.47
2017-08-23T09:20:37.513Z,10.60
2017-08-23T09:23:03.484Z,11.03
2017-08-23T09:25:29.445Z,11.30
2017-08-23T09:27:55.419Z,11.30
2017-08-23T09:30:21.387Z,9.47
2017-08-23T09:32:47.412Z,12.73
2017-08-23T09:35:13.407Z,10.67
2017-08-23T09:37:39.375Z,39.43
2017-08-23T09:40:05.410Z,10.63
2017-08-23T09:42:31.354Z,12.13
2017-08-23T09:44:57.307Z,11.33
2017-08-23T09:47:23.375Z,9.40
2017-08-23T09:49:49.460Z,10.13
2017-08-23T09:52:15.400Z,10.17
2017-08-23T09:54:41.336Z,15.17
2017-08-23T09:57:07.343Z,10.30
2017-08-23T09:59:33.311Z,9.60
2017-08-23T10:01:59.259Z,9.50
2017-08-23T10:04:25.196Z,9.03
2017-08-23T10:06:51.117Z,9.87
2017-08-23T10:09:17.155Z,8.43
2017-08-23T10:11:43.993Z,9.70
2017-08-23T10:14:11.055Z,8.97
2017-08-23T10:16:37.032Z,10.10
2017-08-23T10:19:03.030Z,9.63
2017-08-23T10:21:29.015Z,10.33
2017-08-23T10:23:54.987Z,8.90
2017-08-23T10:26:20.930Z,8.57
2017-08-23T10:28:46.885Z,11.87
2017-08-23T10:31:13.068Z,9.23
2017-08-23T10:33:39.064Z,8.70
2017-08-23T10:36:05.056Z,9.10
2017-08-23T10:38:31.023Z,7.90
2017-08-23T10:40:56.991Z,10.20
2017-08-23T10:43:22.992Z,10.40
2017-08-23T10:45:48.962Z,10.23
2017-08-23T10:48:14.903Z,9.93
2017-08-23T10:50:41.028Z,8.63
2017-08-23T10:53:07.021Z,8.43
2017-08-23T10:55:33.087Z,8.80
2017-08-23T10:57:59.072Z,8.20
2017-08-23T11:00:25.157Z,8.60
2017-08-23T11:02:51.187Z,7.90
2017-08-23T11:05:17.225Z,7.20
2017-08-23T11:07:44.102Z,9.73
2017-08-23T11:10:10.107Z,7.87
2017-08-23T11:12:36.085Z,7.50
2017-08-23T11:15:02.519Z,7.13
2017-08-23T11:17:29.257Z,7.90
2017-08-23T11:19:55.276Z,8.10
2017-08-23T11:22:21.250Z,7.43
2017-08-23T11:24:47.296Z,8.60
2017-08-23T11:27:13.268Z,9.67
2017-08-23T11:29:40.159Z,9.80
2017-08-23T11:32:06.182Z,7.70
2017-08-23T11:34:32.185Z,7.57
2017-08-23T11:36:58.186Z,11.10
2017-08-23T11:39:24.151Z,8.37
2017-08-23T11:41:50.165Z,12.37
2017-08-23T11:44:16.155Z,7.60
2017-08-23T11:46:42.122Z,9.47
2017-08-23T11:49:09.138Z,10.93
2017-08-23T11:51:35.151Z,8.80
2017-08-23T11:54:01.201Z,8.43
2017-08-23T11:56:27.293Z,6.43
2017-08-23T11:58:53.480Z,6.90
2017-08-23T12:01:19.483Z,6.93
2017-08-23T12:03:45.532Z,7.43
2017-08-23T12:06:11.606Z,6.43
2017-08-23T12:08:37.595Z,6.60
2017-08-23T12:11:03.668Z,6.40
2017-08-23T12:13:30.471Z,7.30
2017-08-23T12:15:57.442Z,6.73
2017-08-23T12:18:23.473Z,8.27
2017-08-23T12:20:49.723Z,7.30
2017-08-23T12:23:15.846Z,8.93
2017-08-23T12:25:41.789Z,6.27
2017-08-23T12:28:09.133Z,6.90
2017-08-23T12:30:35.240Z,7.67
2017-08-23T12:33:01.459Z,5.90
2017-08-23T12:35:27.562Z,7.10
2017-08-23T12:37:53.557Z,6.13
2017-08-23T12:40:19.521Z,9.10
2017-08-23T12:42:45.528Z,9.00
2017-08-23T12:45:11.594Z,5.90
2017-08-23T12:47:37.838Z,5.97
2017-08-23T12:50:03.831Z,7.93
2017-08-23T12:52:30.058Z,6.00
2017-08-23T12:54:56.187Z,6.50
2017-08-23T12:57:22.255Z,6.00
2017-08-23T12:59:48.283Z,6.53
2017-08-23T13:02:14.304Z,5.83
2017-08-23T13:04:40.411Z,6.00
2017-08-23T13:07:08.117Z,6.10
2017-08-23T13:09:34.253Z,6.03
2017-08-23T13:12:00.735Z,6.23
2017-08-23T13:14:26.797Z,6.17
2017-08-23T13:16:52.807Z,6.13
2017-08-23T13:19:19.339Z,5.90
2017-08-23T13:21:45.390Z,5.23
2017-08-23T13:24:11.388Z,7.60
2017-08-23T13:26:38.389Z,6.37
2017-08-23T13:29:04.476Z,5.53
2017-08-23T13:31:30.412Z,5.53
2017-08-23T13:33:56.400Z,5.20
2017-08-23T13:36:22.464Z,7.63
2017-08-23T13:38:48.711Z,6.93
2017-08-23T13:41:14.829Z,5.53
2017-08-23T13:43:40.952Z,5.77
2017-08-23T13:46:06.987Z,6.40
2017-08-23T13:48:33.069Z,5.67
2017-08-23T13:50:58.991Z,5.80
2017-08-23T13:53:24.919Z,4.93
2017-08-23T13:55:51.137Z,6.27
2017-08-23T13:58:18.086Z,5.93
2017-08-23T14:00:44.180Z,6.63
2017-08-23T14:03:10.439Z,6.70
2017-08-23T14:05:36.460Z,9.17
2017-08-23T14:08:03.308Z,5.83
2017-08-23T14:10:29.949Z,10.00
2017-08-23T14:12:56.851Z,5.70
2017-08-23T14:15:23.129Z,6.40
2017-08-23T14:20:22.193Z,6.13
2017-08-23T14:22:50.198Z,6.50
2017-08-23T14:25:16.221Z,5.87
2017-08-23T14:27:42.239Z,6.00
2017-08-23T14:30:10.172Z,6.30
2017-08-23T14:32:36.361Z,5.40
2017-08-23T14:35:03.040Z,6.43
2017-08-23T14:37:29.915Z,6.40
2017-08-23T14:39:56.620Z,5.90
2017-08-23T14:42:23.287Z,5.93
2017-08-23T14:44:50.015Z,6.07
2017-08-23T14:47:17.073Z,6.73
2017-08-23T14:49:43.085Z,6.53
2017-08-23T14:52:10.005Z,7.53
2017-08-23T14:59:43.777Z,6.40
2017-08-23T15:02:11.558Z,6.40
2017-08-23T15:04:40.015Z,6.07
2017-08-23T15:07:07.715Z,6.00
2017-08-23T15:09:34.612Z,7.30
2017-08-23T15:12:01.205Z,6.70
2017-08-23T15:14:28.059Z,6.63
2017-08-23T15:16:55.613Z,9.27
2017-08-23T15:19:23.125Z,6.00
2017-08-23T15:21:50.433Z,8.50
2017-08-23T15:24:19.334Z,6.33
2017-08-23T15:26:46.151Z,9.97
2017-08-23T15:29:12.105Z,6.63
2017-08-23T15:31:40.645Z,6.27
2017-08-23T15:34:08.400Z,8.03
2017-08-23T15:36:37.187Z,7.30
2017-08-23T15:39:04.058Z,6.20
2017-08-23T15:41:30.144Z,6.57
2017-08-23T15:43:56.313Z,7.30
2017-08-23T15:46:22.388Z,6.57
2017-08-23T15:48:48.312Z,7.33
2017-08-23T15:51:15.988Z,6.43
2017-08-23T15:56:18.544Z,8.00
2017-08-23T15:58:45.792Z,8.70
2017-08-23T16:01:11.816Z,6.73
2017-08-23T16:03:38.731Z,6.27
2017-08-23T16:06:07.015Z,6.10
2017-08-23T16:08:35.259Z,5.63
2017-08-23T16:11:02.087Z,6.77
2017-08-23T16:13:28.812Z,10.60
2017-08-23T16:15:55.742Z,6.93
2017-08-23T16:18:23.503Z,7.63
2017-08-23T16:25:58.043Z,7.33
2017-08-23T16:28:26.808Z,6.90
2017-08-23T16:30:59.850Z,6.70
2017-08-23T16:33:29.073Z,6.13
2017-08-23T16:38:31.521Z,6.53
2017-08-23T16:40:59.741Z,6.00
2017-08-23T16:43:26.440Z,9.43
2017-08-23T16:45:52.980Z,6.60
2017-08-23T16:48:21.076Z,6.47
2017-08-23T16:50:48.498Z,9.70
2017-08-23T16:53:20.476Z,7.70
2017-08-23T16:55:48.656Z,7.33
2017-08-23T16:58:16.556Z,6.80
2017-08-23T17:00:44.222Z,6.10
2017-08-23T17:05:50.778Z,7.30
2017-08-23T17:08:21.384Z,8.87
2017-08-23T17:10:47.651Z,7.43
2017-08-23T17:13:16.175Z,7.67
2017-08-23T17:15:44.228Z,8.53
2017-08-23T17:18:10.878Z,10.77
2017-08-23T17:20:40.791Z,13.07
2017-08-23T17:23:11.392Z,8.07
2017-08-23T17:28:19.569Z,6.80
2017-08-23T17:31:08.793Z,8.60
2017-08-23T17:33:38.164Z,6.73
2017-08-23T17:36:07.819Z,7.00
2017-08-23T17:38:39.107Z,6.37
2017-08-23T17:43:37.977Z,7.83
2017-08-23T17:46:04.837Z,7.13
2017-08-23T17:48:31.053Z,8.03
2017-08-23T17:50:57.177Z,8.23
2017-08-23T17:53:23.934Z,8.03
2017-08-23T17:55:50.858Z,7.63
2017-08-23T17:58:17.518Z,8.20
2017-08-23T18:00:43.769Z,9.27
2017-08-23T18:03:11.002Z,8.33
2017-08-23T18:05:37.194Z,11.77
2017-08-23T18:08:04.385Z,10.17
2017-08-23T18:10:31.451Z,10.70
2017-08-23T18:12:59.917Z,11.73
2017-08-23T18:15:27.041Z,9.97
2017-08-23T18:17:53.370Z,9.93
2017-08-23T18:20:19.745Z,11.53
2017-08-23T18:22:48.640Z,13.57
2017-08-23T18:25:16.981Z,18.20
2017-08-23T18:27:43.189Z,11.90
2017-08-23T18:30:10.243Z,11.80
2017-08-23T18:32:36.755Z,11.10
2017-08-23T18:35:10.420Z,11.67
2017-08-23T18:37:41.534Z,11.30
2017-08-23T18:40:10.072Z,14.03
2017-08-23T18:42:37.774Z,11.00
2017-08-23T18:45:04.151Z,11.80
2017-08-23T18:47:30.320Z,11.43
2017-08-23T18:49:56.696Z,12.73
2017-08-23T18:52:23.089Z,12.97
2017-08-23T18:54:49.363Z,11.90
2017-08-23T18:57:15.414Z,15.87
2017-08-23T18:59:42.792Z,13.63
2017-08-23T19:02:09.068Z,12.60
2017-08-23T19:04:35.252Z,13.03
2017-08-23T19:07:01.932Z,12.30
2017-08-23T19:09:28.568Z,12.70
2017-08-23T19:11:55.570Z,13.00
2017-08-23T19:14:23.701Z,14.47
2017-08-23T19:16:49.716Z,13.10
2017-08-23T19:19:15.806Z,13.27
2017-08-23T19:21:41.990Z,14.47
2017-08-23T19:24:09.873Z,13.37
2017-08-23T19:26:35.949Z,14.53
2017-08-23T19:29:02.571Z,12.63
2017-08-23T19:31:28.550Z,11.93
2017-08-23T19:33:55.613Z,12.97
2017-08-23T19:38:53.557Z,11.90
2017-08-23T19:41:19.628Z,12.87
2017-08-23T19:46:19.010Z,14.67
2017-08-23T19:48:48.784Z,12.30
2017-08-23T19:51:15.050Z,13.50
2017-08-23T19:53:41.742Z,12.83
2017-08-23T19:56:07.873Z,12.30
2017-08-23T19:58:34.041Z,12.10
2017-08-23T20:01:01.410Z,13.43
2017-08-23T20:03:28.970Z,13.10
2017-08-23T20:05:56.768Z,13.03
2017-08-23T20:08:23.053Z,14.97
2017-08-23T20:10:49.105Z,14.57
2017-08-23T20:15:48.240Z,14.63
2017-08-23T20:18:15.330Z,14.57
2017-08-23T20:20:41.905Z,13.13
2017-08-23T20:23:07.927Z,13.90
2017-08-23T20:28:07.124Z,18.43
2017-08-23T20:30:34.544Z,17.30
2017-08-23T20:33:00.587Z,14.73
2017-08-23T20:35:26.600Z,15.90
2017-08-23T20:37:54.740Z,12.73
2017-08-23T20:40:20.767Z,12.93
2017-08-23T20:42:47.047Z,13.93
2017-08-23T20:45:13.049Z,14.60
2017-08-23T20:47:46.196Z,13.40
2017-08-23T20:57:59.040Z,20.53
2017-08-23T21:00:29.911Z,11.93
2017-08-23T21:02:57.737Z,11.87
2017-08-23T21:07:57.001Z,13.43
2017-08-23T21:10:22.972Z,13.10
2017-08-23T21:12:48.942Z,11.60
2017-08-23T21:15:14.907Z,12.93
2017-08-23T21:17:40.937Z,12.30
2017-08-23T21:20:07.854Z,12.33
2017-08-23T21:22:33.830Z,12.50
2017-08-23T21:24:59.804Z,12.20
2017-08-23T21:27:25.822Z,12.30
2017-08-23T21:29:51.818Z,14.00
2017-08-23T21:32:18.040Z,13.20
2017-08-23T21:34:44.074Z,12.53
2017-08-23T21:37:10.099Z,13.60
2017-08-23T21:39:36.408Z,14.90
2017-08-23T21:42:02.411Z,13.70
2017-08-23T21:44:28.487Z,12.57
2017-08-23T21:46:54.468Z,11.20
2017-08-23T21:49:20.480Z,11.93
2017-08-23T21:51:46.575Z,13.40
2017-08-23T21:54:12.996Z,13.23
2017-08-23T21:56:39.013Z,12.10
2017-08-23T21:59:05.732Z,12.20
2017-08-23T22:01:31.768Z,13.67
2017-08-23T22:03:57.813Z,13.23
2017-08-23T22:06:23.831Z,14.83
2017-08-23T22:08:50.574Z,13.50
2017-08-23T22:11:16.658Z,13.27
2017-08-23T22:13:43.311Z,12.33
2017-08-23T22:16:09.302Z,12.00
2017-08-23T22:18:35.329Z,12.20
2017-08-23T22:21:01.372Z,14.30
2017-08-23T22:23:27.327Z,12.30
2017-08-23T22:25:53.304Z,12.10
2017-08-23T22:28:19.339Z,16.37
2017-08-23T22:30:45.306Z,13.33
2017-08-23T22:33:11.691Z,17.50
2017-08-23T22:35:38.126Z,11.50
2017-08-23T22:38:05.287Z,12.67
2017-08-23T22:40:31.243Z,12.63
2017-08-23T22:42:57.252Z,11.80
2017-08-23T22:45:23.231Z,12.57
2017-08-23T22:47:49.261Z,11.53
2017-08-23T22:50:15.281Z,16.73
2017-08-23T22:52:41.277Z,12.50
2017-08-23T22:55:07.301Z,14.10
2017-08-23T22:57:34.139Z,11.77
2017-08-23T23:00:00.359Z,12.00
2017-08-23T23:02:26.310Z,12.60
2017-08-23T23:04:52.601Z,12.73
2017-08-23T23:07:18.980Z,11.80
2017-08-23T23:09:45.030Z,12.50
2017-08-23T23:12:11.260Z,13.20
2017-08-23T23:14:37.342Z,11.70
2017-08-23T23:17:03.352Z,12.63
2017-08-23T23:19:29.459Z,12.37
2017-08-23T23:21:55.491Z,13.10
2017-08-23T23:24:21.525Z,13.43
2017-08-23T23:26:47.517Z,14.23
2017-08-23T23:29:13.554Z,13.50
2017-08-23T23:31:39.578Z,13.33
2017-08-23T23:34:05.579Z,13.03
2017-08-23T23:36:31.661Z,14.17
2017-08-23T23:38:57.640Z,12.87
2017-08-23T23:41:23.619Z,12.57
2017-08-23T23:43:49.583Z,13.13
2017-08-23T23:46:16.124Z,13.60
2017-08-23T23:48:43.064Z,12.20
2017-08-23T23:51:09.010Z,14.97
2017-08-23T23:53:35.084Z,12.43
2017-08-23T23:56:01.158Z,12.77
2017-08-23T23:58:28.206Z,13.27
